createdAt,value
2019-03-21T00:01:34.949Z,4.41
2019-03-21T00:04:05.770Z,4.40
2019-03-21T00:06:33.375Z,4.40
2019-03-21T00:09:01.039Z,4.40
2019-03-21T00:11:59.800Z,4.41
2019-03-21T00:14:42.999Z,4.41
2019-03-21T00:17:10.759Z,4.43
2019-03-21T00:19:38.366Z,4.42
2019-03-21T00:22:05.962Z,4.42
2019-03-21T00:24:33.568Z,4.43
2019-03-21T00:27:01.178Z,4.43
2019-03-21T00:29:28.786Z,4.44
2019-03-21T00:31:56.383Z,4.44
2019-03-21T00:34:23.972Z,4.42
2019-03-21T00:36:51.570Z,4.39
2019-03-21T00:39:19.220Z,4.38
2019-03-21T00:41:46.780Z,4.39
2019-03-21T00:44:18.450Z,4.39
2019-03-21T00:46:43.918Z,4.37
2019-03-21T00:49:11.513Z,4.37
2019-03-21T00:51:39.118Z,4.39
2019-03-21T00:54:06.728Z,4.39
2019-03-21T00:56:34.324Z,4.39
2019-03-21T00:59:01.924Z,4.38
2019-03-21T01:01:29.521Z,4.38
2019-03-21T01:03:57.128Z,4.38
2019-03-21T01:06:24.732Z,4.38
2019-03-21T01:08:52.360Z,4.39
2019-03-21T01:11:19.994Z,4.39
2019-03-21T01:13:47.622Z,4.40
2019-03-21T01:16:15.267Z,4.41
2019-03-21T01:18:42.878Z,4.43
2019-03-21T01:21:10.496Z,4.46
2019-03-21T01:23:38.096Z,4.47
2019-03-21T01:26:05.705Z,4.49
2019-03-21T01:28:33.307Z,4.46
2019-03-21T01:31:01.019Z,4.45
2019-03-21T01:33:28.607Z,4.43
2019-03-21T01:35:56.196Z,4.42
2019-03-21T01:38:23.809Z,4.41
2019-03-21T01:40:51.578Z,4.41
2019-03-21T01:43:19.298Z,4.40
2019-03-21T01:45:46.916Z,4.40
2019-03-21T01:48:14.519Z,4.38
2019-03-21T01:50:42.115Z,4.36
2019-03-21T01:53:09.749Z,4.35
2019-03-21T01:55:37.346Z,4.34
2019-03-21T01:58:04.962Z,4.33
2019-03-21T02:00:34.528Z,4.33
2019-03-21T02:03:02.150Z,4.32
2019-03-21T02:05:29.732Z,4.34
2019-03-21T02:07:57.356Z,4.34
2019-03-21T02:10:24.983Z,4.37
2019-03-21T02:12:52.547Z,4.38
2019-03-21T02:15:20.182Z,4.40
2019-03-21T02:17:47.835Z,4.41
2019-03-21T02:20:15.571Z,4.44
2019-03-21T02:22:43.174Z,4.44
2019-03-21T02:25:22.469Z,4.45
2019-03-21T02:27:50.323Z,4.43
2019-03-21T02:30:20.286Z,4.41
2019-03-21T02:32:49.698Z,4.40
2019-03-21T02:35:17.291Z,4.41
2019-03-21T02:37:44.903Z,4.41
2019-03-21T02:40:14.809Z,4.41
2019-03-21T02:42:42.440Z,4.43
2019-03-21T02:45:11.283Z,4.47
2019-03-21T02:47:38.959Z,4.47
2019-03-21T02:50:09.627Z,4.48
2019-03-21T02:52:37.235Z,4.49
2019-03-21T02:55:05.198Z,4.50
2019-03-21T02:57:32.791Z,4.51
2019-03-21T03:00:00.497Z,4.52
2019-03-21T03:02:28.096Z,4.52
2019-03-21T03:04:55.700Z,4.54
2019-03-21T03:07:23.297Z,4.55
2019-03-21T03:09:50.891Z,4.54
2019-03-21T03:12:18.507Z,4.55
2019-03-21T03:14:46.107Z,4.53
2019-03-21T03:17:13.813Z,4.50
2019-03-21T03:19:41.446Z,4.50
2019-03-21T03:22:09.095Z,4.48
2019-03-21T03:24:37.398Z,4.47
2019-03-21T03:27:04.999Z,4.47
2019-03-21T03:29:32.604Z,4.45
2019-03-21T03:32:00.293Z,4.45
2019-03-21T03:34:31.003Z,4.45
2019-03-21T03:36:58.595Z,4.44
2019-03-21T03:39:26.208Z,4.43
2019-03-21T03:41:53.819Z,4.43
2019-03-21T03:44:21.417Z,4.41
2019-03-21T03:46:49.014Z,4.41
2019-03-21T03:49:16.640Z,4.39
2019-03-21T03:51:44.256Z,4.39
2019-03-21T03:54:11.868Z,4.38
2019-03-21T03:56:39.480Z,4.40
2019-03-21T03:59:07.085Z,4.39
2019-03-21T04:01:34.699Z,4.36
2019-03-21T04:04:02.305Z,4.37
2019-03-21T04:06:29.937Z,4.35
2019-03-21T04:08:57.568Z,4.35
2019-03-21T04:11:25.175Z,4.35
2019-03-21T04:13:52.863Z,4.36
2019-03-21T04:16:20.492Z,4.36
2019-03-21T04:18:48.092Z,4.39
2019-03-21T04:21:15.783Z,4.39
2019-03-21T04:23:43.408Z,4.39
2019-03-21T04:26:14.651Z,4.40
2019-03-21T04:28:42.346Z,4.41
2019-03-21T04:31:09.954Z,4.41
2019-03-21T04:33:37.569Z,4.39
2019-03-21T04:36:05.162Z,4.38
2019-03-21T04:38:32.757Z,4.35
2019-03-21T04:41:00.357Z,4.33
2019-03-21T04:43:27.966Z,4.30
2019-03-21T04:46:03.263Z,4.28
2019-03-21T04:48:25.106Z,4.26
2019-03-21T04:50:52.703Z,4.24
2019-03-21T04:53:20.326Z,4.21
2019-03-21T04:55:47.924Z,4.18
2019-03-21T04:58:15.549Z,4.15
2019-03-21T05:00:43.211Z,4.14
2019-03-21T05:03:10.888Z,4.12
2019-03-21T05:05:38.577Z,4.13
2019-03-21T05:08:06.207Z,4.12
2019-03-21T05:10:33.812Z,4.12
2019-03-21T05:13:01.407Z,4.11
2019-03-21T05:15:34.435Z,4.10
2019-03-21T05:18:13.851Z,4.10
2019-03-21T05:20:41.481Z,4.10
2019-03-21T05:23:09.092Z,4.11
2019-03-21T05:25:36.688Z,4.12
2019-03-21T05:28:04.296Z,4.13
2019-03-21T05:30:52.754Z,4.14
2019-03-21T05:33:20.373Z,4.17
2019-03-21T05:35:47.977Z,4.19
2019-03-21T05:38:15.642Z,4.22
2019-03-21T05:40:43.271Z,4.26
2019-03-21T05:43:14.260Z,4.30
2019-03-21T05:45:41.855Z,4.36
2019-03-21T05:48:09.465Z,4.41
2019-03-21T05:50:37.093Z,4.45
2019-03-21T05:53:04.710Z,4.50
2019-03-21T05:55:32.299Z,4.53
2019-03-21T05:57:59.911Z,4.57
2019-03-21T06:00:34.916Z,4.64
2019-03-21T06:03:03.268Z,4.65
2019-03-21T06:05:30.876Z,4.67
2019-03-21T06:08:10.987Z,4.67
2019-03-21T06:10:38.588Z,4.67
2019-03-21T06:13:06.188Z,4.69
2019-03-21T06:15:34.763Z,4.71
2019-03-21T06:18:30.175Z,4.75
2019-03-21T06:21:04.095Z,4.78
2019-03-21T06:24:00.564Z,4.80
2019-03-21T06:26:58.409Z,4.83
2019-03-21T06:29:26.012Z,4.85
2019-03-21T06:31:53.616Z,4.86
2019-03-21T06:34:21.231Z,4.89
2019-03-21T06:36:48.844Z,4.93
2019-03-21T06:39:16.455Z,4.98
2019-03-21T06:41:44.067Z,5.03
2019-03-21T06:44:11.697Z,5.07
2019-03-21T06:46:48.738Z,5.13
2019-03-21T06:49:08.808Z,5.17
2019-03-21T06:51:36.413Z,5.23
2019-03-21T06:54:04.016Z,5.30
2019-03-21T06:56:31.655Z,5.36
2019-03-21T06:58:59.256Z,5.40
2019-03-21T07:01:26.860Z,5.45
2019-03-21T07:03:54.477Z,5.50
2019-03-21T07:06:23.010Z,5.55
2019-03-21T07:08:50.632Z,5.61
2019-03-21T07:11:18.257Z,5.66
2019-03-21T07:13:45.949Z,5.70
2019-03-21T07:16:13.588Z,5.76
2019-03-21T07:18:41.199Z,5.78
2019-03-21T07:21:08.844Z,5.80
2019-03-21T07:23:36.461Z,5.84
2019-03-21T07:26:06.597Z,5.90
2019-03-21T07:28:33.679Z,5.93
2019-03-21T07:31:01.790Z,5.97
2019-03-21T07:33:29.408Z,6.02
2019-03-21T07:35:57.008Z,6.09
2019-03-21T07:38:24.679Z,6.16
2019-03-21T07:40:53.083Z,6.24
2019-03-21T07:43:22.291Z,6.32
2019-03-21T07:45:50.239Z,6.37
2019-03-21T07:48:17.838Z,6.40
2019-03-21T07:50:45.438Z,6.46
2019-03-21T07:53:13.052Z,6.48
2019-03-21T07:55:40.648Z,6.55
2019-03-21T07:58:08.270Z,6.61
2019-03-21T08:00:35.905Z,6.65
2019-03-21T08:03:03.522Z,6.71
2019-03-21T08:05:39.748Z,6.75
2019-03-21T08:08:00.728Z,6.80
2019-03-21T08:10:28.330Z,6.87
2019-03-21T08:12:56.144Z,6.90
2019-03-21T08:15:23.763Z,6.94
2019-03-21T08:17:51.377Z,6.98
2019-03-21T08:20:18.987Z,7.06
2019-03-21T08:22:46.621Z,7.11
2019-03-21T08:25:14.283Z,7.16
2019-03-21T08:27:41.901Z,7.22
2019-03-21T08:30:25.114Z,7.25
2019-03-21T08:32:52.720Z,7.32
2019-03-21T08:35:20.337Z,7.39
2019-03-21T08:37:48.027Z,7.44
2019-03-21T08:40:15.643Z,7.48
2019-03-21T08:42:43.267Z,7.54
2019-03-21T08:45:10.877Z,7.57
2019-03-21T08:47:38.515Z,7.63
2019-03-21T08:50:06.283Z,7.69
2019-03-21T08:52:33.919Z,7.74
2019-03-21T08:55:01.531Z,7.79
2019-03-21T08:57:29.189Z,7.84
2019-03-21T08:59:56.836Z,7.89
2019-03-21T09:02:24.468Z,7.97
2019-03-21T09:04:52.096Z,8.03
2019-03-21T09:07:19.732Z,8.10
2019-03-21T09:09:47.461Z,8.13
2019-03-21T09:12:15.191Z,8.18
2019-03-21T09:14:45.098Z,8.23
2019-03-21T09:17:12.711Z,8.25
2019-03-21T09:19:40.325Z,8.27
2019-03-21T09:22:07.934Z,8.29
2019-03-21T09:24:35.539Z,8.32
2019-03-21T09:27:03.160Z,8.35
2019-03-21T09:29:30.784Z,8.37
2019-03-21T09:31:58.399Z,8.41
2019-03-21T09:34:26.012Z,8.43
2019-03-21T09:36:53.632Z,8.44
2019-03-21T09:39:21.275Z,8.47
2019-03-21T09:41:48.929Z,8.48
2019-03-21T09:44:23.086Z,8.50
2019-03-21T09:46:51.325Z,8.53
2019-03-21T09:49:18.963Z,8.56
2019-03-21T09:51:46.624Z,8.58
2019-03-21T09:54:14.240Z,8.60
2019-03-21T09:56:41.855Z,8.63
2019-03-21T09:59:09.470Z,8.67
2019-03-21T10:01:37.079Z,8.68
2019-03-21T10:04:04.705Z,8.70
2019-03-21T10:06:32.344Z,8.73
2019-03-21T10:09:00.031Z,8.75
2019-03-21T10:11:27.645Z,8.80
2019-03-21T10:13:55.269Z,8.80
2019-03-21T10:16:22.879Z,8.84
2019-03-21T10:18:50.493Z,8.88
2019-03-21T10:21:18.112Z,8.92
2019-03-21T10:23:45.720Z,8.97
2019-03-21T10:26:13.331Z,8.98
2019-03-21T10:28:40.950Z,9.01
2019-03-21T10:31:08.659Z,9.06
2019-03-21T10:33:36.271Z,9.09
2019-03-21T10:36:03.923Z,9.13
2019-03-21T10:38:31.507Z,9.15
2019-03-21T10:40:59.111Z,9.19
2019-03-21T10:43:26.754Z,9.21
2019-03-21T10:45:54.359Z,9.23
2019-03-21T10:48:23.537Z,9.27
2019-03-21T10:50:51.303Z,9.27
2019-03-21T10:53:18.909Z,9.32
2019-03-21T10:55:46.498Z,9.36
2019-03-21T10:58:14.125Z,9.40
2019-03-21T11:00:41.737Z,9.43
2019-03-21T11:03:09.339Z,9.47
2019-03-21T11:05:36.975Z,9.49
2019-03-21T11:08:05.096Z,9.53
2019-03-21T11:10:32.696Z,9.59
2019-03-21T11:13:00.314Z,9.62
2019-03-21T11:15:28.021Z,9.68
2019-03-21T11:17:55.663Z,9.77
2019-03-21T11:20:31.043Z,9.85
2019-03-21T11:22:58.663Z,9.89
2019-03-21T11:25:26.370Z,9.97
2019-03-21T11:27:53.965Z,10.04
2019-03-21T11:30:29.301Z,10.07
2019-03-21T11:33:00.325Z,10.08
2019-03-21T11:35:27.922Z,10.11
2019-03-21T11:37:55.549Z,10.16
2019-03-21T11:40:23.150Z,10.19
2019-03-21T11:42:50.779Z,10.20
2019-03-21T11:45:18.373Z,10.18
2019-03-21T11:47:46.029Z,10.14
2019-03-21T11:50:13.625Z,10.15
2019-03-21T11:52:41.410Z,10.13
2019-03-21T11:55:09.374Z,10.13
2019-03-21T11:57:36.948Z,10.11
2019-03-21T12:00:05.774Z,10.11
2019-03-21T12:02:33.371Z,10.08
2019-03-21T12:05:01.042Z,10.08
2019-03-21T12:07:28.634Z,10.10
2019-03-21T12:09:56.236Z,10.12
2019-03-21T12:12:23.926Z,10.12
2019-03-21T12:14:51.546Z,10.12
2019-03-21T12:17:19.682Z,10.14
2019-03-21T12:19:47.290Z,10.11
2019-03-21T12:22:29.149Z,10.11
2019-03-21T12:24:46.966Z,10.09
2019-03-21T12:27:14.565Z,10.06
2019-03-21T12:29:42.192Z,10.07
2019-03-21T12:32:11.044Z,10.11
2019-03-21T12:34:38.636Z,10.11
2019-03-21T12:37:06.243Z,10.06
2019-03-21T12:39:33.857Z,10.05
2019-03-21T12:42:01.456Z,10.01
2019-03-21T12:44:29.076Z,9.97
2019-03-21T12:46:56.684Z,9.99
2019-03-21T12:49:24.299Z,9.92
2019-03-21T12:51:51.942Z,9.91
2019-03-21T12:54:19.546Z,9.85
2019-03-21T12:56:47.149Z,9.77
2019-03-21T12:59:14.786Z,9.73
2019-03-21T13:01:42.379Z,9.71
2019-03-21T13:04:10.000Z,9.70
2019-03-21T13:06:37.597Z,9.65
2019-03-21T13:09:06.627Z,9.63
2019-03-21T13:11:34.217Z,9.62
2019-03-21T13:14:01.920Z,9.59
2019-03-21T13:16:29.519Z,9.58
2019-03-21T13:18:57.194Z,9.58
2019-03-21T13:21:25.899Z,9.55
2019-03-21T13:23:55.960Z,9.49
2019-03-21T13:26:23.592Z,9.46
2019-03-21T13:28:51.195Z,9.44
2019-03-21T13:31:18.829Z,9.41
2019-03-21T13:33:46.458Z,9.40
2019-03-21T13:36:14.144Z,9.38
2019-03-21T13:38:41.759Z,9.37
2019-03-21T13:41:09.366Z,9.36
2019-03-21T13:43:37.021Z,9.33
2019-03-21T13:46:04.666Z,9.33
2019-03-21T13:48:32.271Z,9.33
2019-03-21T13:50:59.878Z,9.34
2019-03-21T13:53:27.494Z,9.36
2019-03-21T13:55:55.110Z,9.35
2019-03-21T13:58:22.726Z,9.36
2019-03-21T14:00:50.331Z,9.37
2019-03-21T14:03:25.142Z,9.40
2019-03-21T14:05:47.455Z,9.41
2019-03-21T14:08:15.088Z,9.43
2019-03-21T14:10:42.684Z,9.46
2019-03-21T14:13:10.290Z,9.49
2019-03-21T14:15:37.926Z,9.52
2019-03-21T14:18:05.531Z,9.57
2019-03-21T14:20:33.132Z,9.61
2019-03-21T14:23:00.723Z,9.65
2019-03-21T14:25:28.425Z,9.71
2019-03-21T14:27:56.025Z,9.72
2019-03-21T14:30:23.629Z,9.73
2019-03-21T14:32:51.241Z,9.77
2019-03-21T14:35:18.829Z,9.78
2019-03-21T14:37:46.445Z,9.76
2019-03-21T14:40:14.506Z,9.75
2019-03-21T14:42:42.447Z,9.77
2019-03-21T14:45:10.860Z,9.78
2019-03-21T14:47:38.474Z,9.79
2019-03-21T14:50:06.995Z,9.80
2019-03-21T14:52:34.687Z,9.78
2019-03-21T14:55:02.295Z,9.77
2019-03-21T14:57:29.906Z,9.78
2019-03-21T14:59:57.543Z,9.77
2019-03-21T15:02:25.146Z,9.77
2019-03-21T15:04:52.775Z,9.78
2019-03-21T15:07:20.385Z,9.81
2019-03-21T15:09:47.980Z,9.81
2019-03-21T15:12:15.615Z,9.81
2019-03-21T15:14:43.216Z,9.83
2019-03-21T15:17:10.817Z,9.83
2019-03-21T15:19:39.351Z,9.84
2019-03-21T15:22:07.132Z,9.84
2019-03-21T15:24:34.725Z,9.84
2019-03-21T15:27:02.363Z,9.88
2019-03-21T15:29:30.015Z,9.88
2019-03-21T15:31:59.737Z,9.89
2019-03-21T15:34:27.365Z,9.89
2019-03-21T15:36:54.962Z,9.92
2019-03-21T15:39:22.581Z,9.91
2019-03-21T15:41:50.201Z,9.92
2019-03-21T15:44:17.795Z,9.95
2019-03-21T15:46:45.391Z,9.96
2019-03-21T15:49:12.986Z,9.99
2019-03-21T15:51:40.579Z,9.98
2019-03-21T15:54:08.190Z,9.96
2019-03-21T15:56:38.968Z,9.95
2019-03-21T15:59:06.574Z,9.97
2019-03-21T16:01:34.183Z,9.92
2019-03-21T16:04:01.825Z,9.90
2019-03-21T16:06:29.424Z,9.88
2019-03-21T16:08:57.023Z,9.86
2019-03-21T16:11:24.632Z,9.82
2019-03-21T16:13:52.251Z,9.79
2019-03-21T16:16:19.937Z,9.76
2019-03-21T16:18:47.537Z,9.76
2019-03-21T16:21:15.136Z,9.71
2019-03-21T16:23:42.742Z,9.68
2019-03-21T16:26:10.338Z,9.65
2019-03-21T16:28:37.938Z,9.63
2019-03-21T16:31:05.544Z,9.59
2019-03-21T16:33:33.144Z,9.58
2019-03-21T16:36:00.752Z,9.54
2019-03-21T16:38:28.355Z,9.49
2019-03-21T16:40:55.965Z,9.45
2019-03-21T16:43:23.567Z,9.42
2019-03-21T16:45:51.176Z,9.39
2019-03-21T16:48:18.763Z,9.36
2019-03-21T16:50:46.359Z,9.33
2019-03-21T16:53:13.940Z,9.28
2019-03-21T16:55:41.526Z,9.24
2019-03-21T16:58:09.134Z,9.21
2019-03-21T17:00:36.727Z,9.16
2019-03-21T17:03:04.656Z,9.11
2019-03-21T17:05:32.262Z,9.09
2019-03-21T17:08:10.480Z,9.07
2019-03-21T17:10:30.595Z,9.01
2019-03-21T17:12:58.472Z,8.97
2019-03-21T17:15:26.078Z,8.94
2019-03-21T17:17:53.711Z,8.91
2019-03-21T17:20:21.321Z,8.88
2019-03-21T17:22:48.949Z,8.84
2019-03-21T17:25:16.540Z,8.79
2019-03-21T17:27:44.137Z,8.76
2019-03-21T17:30:12.000Z,8.73
2019-03-21T17:32:40.119Z,8.68
2019-03-21T17:35:07.823Z,8.64
2019-03-21T17:37:35.525Z,8.61
2019-03-21T17:40:04.804Z,8.60
2019-03-21T17:42:32.424Z,8.58
2019-03-21T17:45:00.095Z,8.57
2019-03-21T17:47:27.708Z,8.54
2019-03-21T17:49:55.325Z,8.53
2019-03-21T17:52:23.026Z,8.51
2019-03-21T17:54:50.727Z,8.51
2019-03-21T17:57:18.403Z,8.50
2019-03-21T17:59:46.022Z,8.51
2019-03-21T18:02:13.872Z,8.50
2019-03-21T18:04:41.492Z,8.47
2019-03-21T18:07:09.169Z,8.44
2019-03-21T18:09:36.928Z,8.41
2019-03-21T18:12:04.581Z,8.37
2019-03-21T18:14:32.197Z,8.33
2019-03-21T18:16:59.851Z,8.30
2019-03-21T18:19:27.490Z,8.26
2019-03-21T18:21:55.116Z,8.24
2019-03-21T18:24:22.836Z,8.19
2019-03-21T18:26:50.526Z,8.14
2019-03-21T18:29:18.163Z,8.09
2019-03-21T18:31:45.815Z,8.02
2019-03-21T18:34:13.517Z,7.97
2019-03-21T18:36:41.176Z,7.92
2019-03-21T18:39:10.837Z,7.92
2019-03-21T18:41:38.520Z,7.91
2019-03-21T18:44:08.671Z,7.92
2019-03-21T18:46:36.371Z,7.92
2019-03-21T18:49:04.050Z,7.92
2019-03-21T18:51:31.658Z,7.93
2019-03-21T18:53:59.310Z,7.89
2019-03-21T18:56:26.990Z,7.84
2019-03-21T18:58:57.668Z,7.86
2019-03-21T19:01:25.370Z,7.92
2019-03-21T19:03:53.040Z,7.98
2019-03-21T19:06:20.819Z,8.03
2019-03-21T19:08:48.454Z,8.16
2019-03-21T19:11:16.183Z,8.30
2019-03-21T19:13:47.046Z,8.16
2019-03-21T19:16:14.729Z,8.12
2019-03-21T19:18:42.342Z,8.05
2019-03-21T19:21:10.103Z,8.00
2019-03-21T19:23:37.743Z,7.97
2019-03-21T19:26:05.378Z,7.91
2019-03-21T19:28:32.995Z,7.84
2019-03-21T19:31:00.646Z,7.78
2019-03-21T19:33:28.301Z,7.74
2019-03-21T19:35:55.933Z,7.67
2019-03-21T19:38:23.993Z,7.63
2019-03-21T19:40:51.875Z,7.57
2019-03-21T19:43:19.455Z,7.54
2019-03-21T19:45:49.699Z,7.53
2019-03-21T19:48:17.382Z,7.50
2019-03-21T19:50:45.048Z,7.46
2019-03-21T19:53:12.685Z,7.44
2019-03-21T19:55:40.328Z,7.44
2019-03-21T19:58:08.142Z,7.42
2019-03-21T20:00:35.783Z,7.39
2019-03-21T20:03:06.180Z,7.37
2019-03-21T20:05:34.897Z,7.33
2019-03-21T20:08:02.628Z,7.31
2019-03-21T20:10:30.250Z,7.30
2019-03-21T20:12:57.882Z,7.28
2019-03-21T20:15:25.560Z,7.25
2019-03-21T20:17:55.306Z,7.25
2019-03-21T20:20:22.943Z,7.23
2019-03-21T20:22:50.540Z,7.20
2019-03-21T20:25:18.297Z,7.19
2019-03-21T20:27:48.721Z,7.17
2019-03-21T20:30:19.463Z,7.16
2019-03-21T20:32:49.613Z,7.13
2019-03-21T20:35:20.282Z,7.12
2019-03-21T20:37:47.927Z,7.10
2019-03-21T20:40:16.099Z,7.09
2019-03-21T20:42:43.722Z,7.05
2019-03-21T20:45:13.685Z,7.02
2019-03-21T20:47:42.071Z,7.00
2019-03-21T20:50:09.955Z,6.98
2019-03-21T20:52:40.562Z,6.94
2019-03-21T20:55:08.891Z,6.89
2019-03-21T20:57:39.479Z,6.84
2019-03-21T21:00:10.645Z,6.79
2019-03-21T21:02:38.291Z,6.79
2019-03-21T21:05:06.058Z,6.78
2019-03-21T21:07:33.667Z,6.78
2019-03-21T21:10:01.330Z,6.74
2019-03-21T21:12:30.449Z,6.72
2019-03-21T21:14:58.073Z,6.69
2019-03-21T21:17:25.871Z,6.69
2019-03-21T21:19:56.271Z,6.71
2019-03-21T21:22:23.871Z,6.68
2019-03-21T21:24:51.598Z,6.65
2019-03-21T21:27:23.399Z,6.58
2019-03-21T21:29:51.009Z,6.54
2019-03-21T21:32:18.690Z,6.49
2019-03-21T21:35:11.498Z,6.47
2019-03-21T21:37:39.807Z,6.45
2019-03-21T21:40:10.550Z,6.41
2019-03-21T21:42:41.263Z,6.34
2019-03-21T21:45:09.754Z,6.30
2019-03-21T21:47:37.454Z,6.23
2019-03-21T21:50:07.145Z,6.14
2019-03-21T21:52:42.008Z,6.10
2019-03-21T21:55:07.296Z,6.08
2019-03-21T21:57:38.247Z,6.07
2019-03-21T22:00:06.994Z,6.05
2019-03-21T22:02:34.651Z,6.00
2019-03-21T22:05:02.364Z,5.94
2019-03-21T22:07:30.025Z,5.87
2019-03-21T22:09:57.686Z,5.82
2019-03-21T22:12:28.143Z,5.78
2019-03-21T22:14:58.036Z,5.75
2019-03-21T22:17:25.652Z,5.73
2019-03-21T22:19:53.268Z,5.74
2019-03-21T22:22:20.956Z,5.73
2019-03-21T22:24:51.034Z,5.74
2019-03-21T22:27:18.726Z,5.72
2019-03-21T22:29:46.428Z,5.71
2019-03-21T22:32:14.122Z,5.66
2019-03-21T22:34:41.841Z,5.65
2019-03-21T22:37:09.483Z,5.64
2019-03-21T22:39:37.090Z,5.61
2019-03-21T22:42:06.634Z,5.59
2019-03-21T22:44:34.297Z,5.59
2019-03-21T22:47:01.890Z,5.59
2019-03-21T22:49:29.493Z,5.55
2019-03-21T22:51:57.096Z,5.55
2019-03-21T22:54:24.691Z,5.56
2019-03-21T22:56:52.343Z,5.54
2019-03-21T22:59:19.950Z,5.54
2019-03-21T23:01:47.656Z,5.54
2019-03-21T23:04:16.536Z,5.53
2019-03-21T23:06:46.692Z,5.49
2019-03-21T23:09:17.250Z,5.49
2019-03-21T23:11:44.900Z,5.44
2019-03-21T23:14:12.511Z,5.39
2019-03-21T23:16:42.339Z,5.34
2019-03-21T23:19:09.938Z,5.28
2019-03-21T23:21:37.575Z,5.21
2019-03-21T23:24:05.188Z,5.14
2019-03-21T23:26:32.836Z,5.09
2019-03-21T23:29:00.468Z,5.03
2019-03-21T23:31:32.278Z,4.97
2019-03-21T23:34:02.374Z,4.95
2019-03-21T23:36:32.622Z,4.90
2019-03-21T23:39:00.265Z,4.91
2019-03-21T23:41:31.043Z,4.90
2019-03-21T23:43:58.638Z,4.90
2019-03-21T23:46:26.320Z,4.92
2019-03-21T23:48:53.978Z,4.93
2019-03-21T23:51:21.586Z,4.98
2019-03-21T23:53:51.236Z,4.99
2019-03-21T23:56:18.827Z,5.01
2019-03-21T23:58:49.209Z,5.04
